sensor_id;sensor_type;location;lat;lon;timestamp;P1;durP1;ratioP1;P2;durP2;ratioP2
64684;SDS011;51109;47.414;18.954;2023-12-20T00:00:26;149.10;;;36.45;;
64684;SDS011;51109;47.414;18.954;2023-12-20T00:02:52;167.77;;;37.63;;
64684;SDS011;51109;47.414;18.954;2023-12-20T00:05:17;203.75;;;36.22;;
64684;SDS011;51109;47.414;18.954;2023-12-20T00:07:43;163.02;;;36.17;;
64684;SDS011;51109;47.414;18.954;2023-12-20T00:10:09;153.10;;;36.70;;
64684;SDS011;51109;47.414;18.954;2023-12-20T00:12:35;145.48;;;35.45;;
64684;SDS011;51109;47.414;18.954;2023-12-20T00:15:01;188.13;;;40.75;;
64684;SDS011;51109;47.414;18.954;2023-12-20T00:17:26;231.80;;;41.17;;
64684;SDS011;51109;47.414;18.954;2023-12-20T00:19:52;158.82;;;37.97;;
64684;SDS011;51109;47.414;18.954;2023-12-20T00:22:18;129.00;;;36.17;;
64684;SDS011;51109;47.414;18.954;2023-12-20T00:24:44;164.63;;;41.83;;
64684;SDS011;51109;47.414;18.954;2023-12-20T00:27:10;206.80;;;41.38;;
64684;SDS011;51109;47.414;18.954;2023-12-20T00:29:35;158.15;;;38.63;;
64684;SDS011;51109;47.414;18.954;2023-12-20T00:32:01;163.73;;;41.47;;
64684;SDS011;51109;47.414;18.954;2023-12-20T00:34:27;191.48;;;38.83;;
64684;SDS011;51109;47.414;18.954;2023-12-20T00:36:53;148.73;;;38.08;;
64684;SDS011;51109;47.414;18.954;2023-12-20T00:39:20;183.30;;;40.97;;
64684;SDS011;51109;47.414;18.954;2023-12-20T00:41:45;156.98;;;39.15;;
64684;SDS011;51109;47.414;18.954;2023-12-20T00:44:11;116.22;;;37.80;;
64684;SDS011;51109;47.414;18.954;2023-12-20T00:46:37;153.23;;;39.45;;
64684;SDS011;51109;47.414;18.954;2023-12-20T00:49:03;175.95;;;39.95;;
64684;SDS011;51109;47.414;18.954;2023-12-20T00:51:28;123.43;;;36.67;;
64684;SDS011;51109;47.414;18.954;2023-12-20T00:53:54;134.10;;;35.72;;
64684;SDS011;51109;47.414;18.954;2023-12-20T00:56:20;137.15;;;36.10;;
64684;SDS011;51109;47.414;18.954;2023-12-20T00:58:46;114.13;;;35.67;;
64684;SDS011;51109;47.414;18.954;2023-12-20T01:01:12;141.38;;;35.28;;
64684;SDS011;51109;47.414;18.954;2023-12-20T01:03:38;128.77;;;36.45;;
64684;SDS011;51109;47.414;18.954;2023-12-20T01:06:04;115.47;;;34.65;;
64684;SDS011;51109;47.414;18.954;2023-12-20T01:08:30;155.13;;;36.60;;
64684;SDS011;51109;47.414;18.954;2023-12-20T01:10:56;137.35;;;34.08;;
64684;SDS011;51109;47.414;18.954;2023-12-20T01:13:22;132.15;;;36.53;;
64684;SDS011;51109;47.414;18.954;2023-12-20T01:15:47;141.35;;;35.75;;
64684;SDS011;51109;47.414;18.954;2023-12-20T01:18:13;140.82;;;35.30;;
64684;SDS011;51109;47.414;18.954;2023-12-20T01:20:40;154.10;;;36.53;;
64684;SDS011;51109;47.414;18.954;2023-12-20T01:23:05;133.27;;;36.88;;
64684;SDS011;51109;47.414;18.954;2023-12-20T01:25:31;138.27;;;37.33;;
64684;SDS011;51109;47.414;18.954;2023-12-20T01:27:57;170.10;;;38.03;;
64684;SDS011;51109;47.414;18.954;2023-12-20T01:30:23;181.95;;;39.00;;
64684;SDS011;51109;47.414;18.954;2023-12-20T01:32:49;173.20;;;38.05;;
64684;SDS011;51109;47.414;18.954;2023-12-20T01:35:15;140.13;;;38.20;;
64684;SDS011;51109;47.414;18.954;2023-12-20T01:37:41;132.93;;;35.78;;
64684;SDS011;51109;47.414;18.954;2023-12-20T01:40:06;151.98;;;36.05;;
64684;SDS011;51109;47.414;18.954;2023-12-20T01:42:33;123.05;;;36.45;;
64684;SDS011;51109;47.414;18.954;2023-12-20T01:44:59;142.30;;;38.45;;
64684;SDS011;51109;47.414;18.954;2023-12-20T01:47:24;143.23;;;38.78;;
64684;SDS011;51109;47.414;18.954;2023-12-20T01:49:52;129.77;;;38.58;;
64684;SDS011;51109;47.414;18.954;2023-12-20T01:52:18;156.95;;;38.03;;
64684;SDS011;51109;47.414;18.954;2023-12-20T01:54:45;154.43;;;39.53;;
64684;SDS011;51109;47.414;18.954;2023-12-20T01:57:12;145.85;;;37.13;;
64684;SDS011;51109;47.414;18.954;2023-12-20T01:59:38;167.93;;;39.58;;
64684;SDS011;51109;47.414;18.954;2023-12-20T02:04:39;142.85;;;37.85;;
64684;SDS011;51109;47.414;18.954;2023-12-20T02:07:05;156.02;;;41.25;;
64684;SDS011;51109;47.414;18.954;2023-12-20T02:09:33;122.60;;;37.88;;
64684;SDS011;51109;47.414;18.954;2023-12-20T02:12:00;154.23;;;37.83;;
64684;SDS011;51109;47.414;18.954;2023-12-20T02:14:26;141.93;;;39.30;;
64684;SDS011;51109;47.414;18.954;2023-12-20T02:16:51;139.13;;;37.63;;
64684;SDS011;51109;47.414;18.954;2023-12-20T02:19:18;146.07;;;39.08;;
64684;SDS011;51109;47.414;18.954;2023-12-20T02:21:46;128.98;;;39.22;;
64684;SDS011;51109;47.414;18.954;2023-12-20T02:24:12;174.82;;;40.95;;
64684;SDS011;51109;47.414;18.954;2023-12-20T02:26:38;171.63;;;41.97;;
64684;SDS011;51109;47.414;18.954;2023-12-20T02:29:04;144.35;;;37.60;;
64684;SDS011;51109;47.414;18.954;2023-12-20T02:31:29;165.00;;;40.85;;
64684;SDS011;51109;47.414;18.954;2023-12-20T02:33:55;137.68;;;39.90;;
64684;SDS011;51109;47.414;18.954;2023-12-20T02:36:21;132.10;;;37.35;;
64684;SDS011;51109;47.414;18.954;2023-12-20T02:38:47;133.30;;;38.22;;
64684;SDS011;51109;47.414;18.954;2023-12-20T02:41:13;139.40;;;37.55;;
64684;SDS011;51109;47.414;18.954;2023-12-20T02:43:41;135.80;;;35.63;;
64684;SDS011;51109;47.414;18.954;2023-12-20T02:46:06;134.38;;;36.85;;
64684;SDS011;51109;47.414;18.954;2023-12-20T02:48:32;128.98;;;36.78;;
64684;SDS011;51109;47.414;18.954;2023-12-20T02:50:58;164.73;;;40.65;;
64684;SDS011;51109;47.414;18.954;2023-12-20T02:53:24;182.50;;;42.55;;
64684;SDS011;51109;47.414;18.954;2023-12-20T02:55:49;153.98;;;40.13;;
64684;SDS011;51109;47.414;18.954;2023-12-20T02:58:15;161.10;;;38.67;;
64684;SDS011;51109;47.414;18.954;2023-12-20T03:00:42;145.25;;;36.40;;
64684;SDS011;51109;47.414;18.954;2023-12-20T03:03:08;121.95;;;36.45;;
64684;SDS011;51109;47.414;18.954;2023-12-20T03:05:34;134.65;;;35.97;;
64684;SDS011;51109;47.414;18.954;2023-12-20T03:08:00;121.35;;;37.25;;
64684;SDS011;51109;47.414;18.954;2023-12-20T03:10:26;137.88;;;38.80;;
64684;SDS011;51109;47.414;18.954;2023-12-20T03:12:51;205.18;;;44.35;;
64684;SDS011;51109;47.414;18.954;2023-12-20T03:15:17;135.80;;;37.53;;
64684;SDS011;51109;47.414;18.954;2023-12-20T03:17:43;162.50;;;38.22;;
64684;SDS011;51109;47.414;18.954;2023-12-20T03:20:09;145.10;;;41.03;;
64684;SDS011;51109;47.414;18.954;2023-12-20T03:22:34;158.57;;;39.03;;
64684;SDS011;51109;47.414;18.954;2023-12-20T03:25:00;145.07;;;39.60;;
64684;SDS011;51109;47.414;18.954;2023-12-20T03:27:26;201.07;;;40.30;;
64684;SDS011;51109;47.414;18.954;2023-12-20T03:29:52;142.95;;;38.33;;
64684;SDS011;51109;47.414;18.954;2023-12-20T03:32:18;143.07;;;40.30;;
64684;SDS011;51109;47.414;18.954;2023-12-20T03:34:43;122.97;;;38.08;;
64684;SDS011;51109;47.414;18.954;2023-12-20T03:37:09;152.68;;;38.10;;
64684;SDS011;51109;47.414;18.954;2023-12-20T03:39:35;133.52;;;35.63;;
64684;SDS011;51109;47.414;18.954;2023-12-20T03:42:00;127.22;;;36.28;;
64684;SDS011;51109;47.414;18.954;2023-12-20T03:44:26;152.75;;;36.67;;
64684;SDS011;51109;47.414;18.954;2023-12-20T03:46:52;183.88;;;36.20;;
64684;SDS011;51109;47.414;18.954;2023-12-20T03:49:17;130.95;;;35.85;;
64684;SDS011;51109;47.414;18.954;2023-12-20T03:51:43;164.82;;;35.85;;
64684;SDS011;51109;47.414;18.954;2023-12-20T03:54:09;133.00;;;36.72;;
64684;SDS011;51109;47.414;18.954;2023-12-20T03:56:35;112.90;;;34.35;;
64684;SDS011;51109;47.414;18.954;2023-12-20T03:59:00;125.40;;;33.45;;
64684;SDS011;51109;47.414;18.954;2023-12-20T04:01:26;118.50;;;36.53;;
64684;SDS011;51109;47.414;18.954;2023-12-20T04:03:52;133.23;;;34.67;;
64684;SDS011;51109;47.414;18.954;2023-12-20T04:06:18;158.43;;;36.75;;
64684;SDS011;51109;47.414;18.954;2023-12-20T04:08:44;212.88;;;39.53;;
64684;SDS011;51109;47.414;18.954;2023-12-20T04:11:10;158.20;;;36.00;;
64684;SDS011;51109;47.414;18.954;2023-12-20T04:13:36;162.73;;;38.13;;
64684;SDS011;51109;47.414;18.954;2023-12-20T04:16:02;134.40;;;37.80;;
64684;SDS011;51109;47.414;18.954;2023-12-20T04:18:27;160.13;;;39.92;;
64684;SDS011;51109;47.414;18.954;2023-12-20T04:20:54;134.38;;;36.13;;
64684;SDS011;51109;47.414;18.954;2023-12-20T04:23:19;139.60;;;37.10;;
64684;SDS011;51109;47.414;18.954;2023-12-20T04:25:45;132.88;;;38.30;;
64684;SDS011;51109;47.414;18.954;2023-12-20T04:28:11;152.13;;;39.00;;
64684;SDS011;51109;47.414;18.954;2023-12-20T04:30:37;179.82;;;40.03;;
64684;SDS011;51109;47.414;18.954;2023-12-20T04:33:03;164.45;;;41.63;;
64684;SDS011;51109;47.414;18.954;2023-12-20T04:35:29;124.13;;;38.40;;
64684;SDS011;51109;47.414;18.954;2023-12-20T04:37:55;168.60;;;36.88;;
64684;SDS011;51109;47.414;18.954;2023-12-20T04:40:21;148.40;;;36.80;;
64684;SDS011;51109;47.414;18.954;2023-12-20T04:42:46;150.45;;;36.22;;
64684;SDS011;51109;47.414;18.954;2023-12-20T04:45:12;179.23;;;37.45;;
64684;SDS011;51109;47.414;18.954;2023-12-20T04:47:41;117.80;;;35.88;;
64684;SDS011;51109;47.414;18.954;2023-12-20T04:50:07;139.90;;;36.13;;
64684;SDS011;51109;47.414;18.954;2023-12-20T04:52:34;102.88;;;36.60;;
64684;SDS011;51109;47.414;18.954;2023-12-20T04:55:01;104.65;;;37.97;;
64684;SDS011;51109;47.414;18.954;2023-12-20T04:57:26;112.45;;;35.03;;
64684;SDS011;51109;47.414;18.954;2023-12-20T04:59:52;112.60;;;35.38;;
64684;SDS011;51109;47.414;18.954;2023-12-20T05:02:18;118.72;;;35.05;;
64684;SDS011;51109;47.414;18.954;2023-12-20T05:04:43;154.77;;;35.60;;
64684;SDS011;51109;47.414;18.954;2023-12-20T05:07:09;172.30;;;35.63;;
64684;SDS011;51109;47.414;18.954;2023-12-20T05:09:35;117.47;;;30.70;;
64684;SDS011;51109;47.414;18.954;2023-12-20T05:12:01;115.97;;;33.47;;
64684;SDS011;51109;47.414;18.954;2023-12-20T05:14:26;126.78;;;33.80;;
64684;SDS011;51109;47.414;18.954;2023-12-20T05:16:53;103.35;;;29.73;;
64684;SDS011;51109;47.414;18.954;2023-12-20T05:19:18;137.88;;;32.25;;
64684;SDS011;51109;47.414;18.954;2023-12-20T05:21:44;145.18;;;33.72;;
64684;SDS011;51109;47.414;18.954;2023-12-20T05:24:10;142.38;;;33.42;;
64684;SDS011;51109;47.414;18.954;2023-12-20T05:26:36;177.20;;;34.45;;
64684;SDS011;51109;47.414;18.954;2023-12-20T05:29:02;130.63;;;32.42;;
64684;SDS011;51109;47.414;18.954;2023-12-20T05:31:27;259.33;;;36.40;;
64684;SDS011;51109;47.414;18.954;2023-12-20T05:33:53;128.90;;;31.48;;
64684;SDS011;51109;47.414;18.954;2023-12-20T05:36:19;167.48;;;37.22;;
64684;SDS011;51109;47.414;18.954;2023-12-20T05:38:45;143.93;;;32.97;;
64684;SDS011;51109;47.414;18.954;2023-12-20T05:41:11;179.23;;;37.22;;
64684;SDS011;51109;47.414;18.954;2023-12-20T05:43:37;113.32;;;34.95;;
64684;SDS011;51109;47.414;18.954;2023-12-20T05:46:03;208.57;;;35.20;;
64684;SDS011;51109;47.414;18.954;2023-12-20T05:48:29;143.65;;;32.53;;
64684;SDS011;51109;47.414;18.954;2023-12-20T05:50:55;128.15;;;32.47;;
64684;SDS011;51109;47.414;18.954;2023-12-20T05:53:21;148.10;;;34.17;;
64684;SDS011;51109;47.414;18.954;2023-12-20T05:55:47;117.40;;;33.28;;
64684;SDS011;51109;47.414;18.954;2023-12-20T05:58:12;123.50;;;34.55;;
64684;SDS011;51109;47.414;18.954;2023-12-20T06:00:38;110.95;;;33.25;;
64684;SDS011;51109;47.414;18.954;2023-12-20T06:03:04;130.10;;;33.33;;
64684;SDS011;51109;47.414;18.954;2023-12-20T06:05:30;145.27;;;32.30;;
64684;SDS011;51109;47.414;18.954;2023-12-20T06:07:56;99.20;;;32.20;;
64684;SDS011;51109;47.414;18.954;2023-12-20T06:10:26;110.93;;;30.50;;
64684;SDS011;51109;47.414;18.954;2023-12-20T06:12:52;143.57;;;32.03;;
64684;SDS011;51109;47.414;18.954;2023-12-20T06:15:18;148.07;;;32.30;;
64684;SDS011;51109;47.414;18.954;2023-12-20T06:17:44;116.00;;;31.85;;
64684;SDS011;51109;47.414;18.954;2023-12-20T06:20:11;126.18;;;33.38;;
64684;SDS011;51109;47.414;18.954;2023-12-20T06:22:38;126.43;;;33.17;;
64684;SDS011;51109;47.414;18.954;2023-12-20T06:25:04;127.57;;;33.83;;
64684;SDS011;51109;47.414;18.954;2023-12-20T06:27:30;201.60;;;35.00;;
64684;SDS011;51109;47.414;18.954;2023-12-20T06:29:57;171.15;;;34.25;;
64684;SDS011;51109;47.414;18.954;2023-12-20T06:32:24;165.15;;;34.88;;
64684;SDS011;51109;47.414;18.954;2023-12-20T06:34:50;115.78;;;35.13;;
64684;SDS011;51109;47.414;18.954;2023-12-20T06:37:16;137.73;;;31.00;;
64684;SDS011;51109;47.414;18.954;2023-12-20T06:39:41;204.65;;;35.60;;
64684;SDS011;51109;47.414;18.954;2023-12-20T06:42:07;280.63;;;39.05;;
64684;SDS011;51109;47.414;18.954;2023-12-20T06:44:33;279.52;;;41.88;;
64684;SDS011;51109;47.414;18.954;2023-12-20T06:46:59;134.18;;;31.50;;
64684;SDS011;51109;47.414;18.954;2023-12-20T06:49:25;119.60;;;32.13;;
64684;SDS011;51109;47.414;18.954;2023-12-20T06:51:51;85.13;;;28.40;;
64684;SDS011;51109;47.414;18.954;2023-12-20T06:54:18;68.35;;;22.38;;
64684;SDS011;51109;47.414;18.954;2023-12-20T06:56:44;92.95;;;30.75;;
64684;SDS011;51109;47.414;18.954;2023-12-20T06:59:09;104.50;;;32.83;;
64684;SDS011;51109;47.414;18.954;2023-12-20T07:01:35;101.00;;;33.08;;
64684;SDS011;51109;47.414;18.954;2023-12-20T07:04:01;95.53;;;33.78;;
64684;SDS011;51109;47.414;18.954;2023-12-20T07:06:27;107.47;;;35.85;;
64684;SDS011;51109;47.414;18.954;2023-12-20T07:08:53;112.15;;;35.58;;
64684;SDS011;51109;47.414;18.954;2023-12-20T07:11:19;100.10;;;35.25;;
64684;SDS011;51109;47.414;18.954;2023-12-20T07:13:44;102.60;;;35.60;;
64684;SDS011;51109;47.414;18.954;2023-12-20T07:16:11;124.85;;;40.00;;
64684;SDS011;51109;47.414;18.954;2023-12-20T07:18:37;116.20;;;38.38;;
64684;SDS011;51109;47.414;18.954;2023-12-20T07:21:03;113.85;;;37.55;;
64684;SDS011;51109;47.414;18.954;2023-12-20T07:23:28;104.13;;;39.28;;
64684;SDS011;51109;47.414;18.954;2023-12-20T07:25:54;135.30;;;40.50;;
64684;SDS011;51109;47.414;18.954;2023-12-20T07:28:20;110.72;;;39.20;;
64684;SDS011;51109;47.414;18.954;2023-12-20T07:30:46;125.20;;;38.90;;
64684;SDS011;51109;47.414;18.954;2023-12-20T07:33:12;92.18;;;31.25;;
64684;SDS011;51109;47.414;18.954;2023-12-20T07:35:38;118.78;;;41.40;;
64684;SDS011;51109;47.414;18.954;2023-12-20T07:38:04;119.32;;;39.97;;
64684;SDS011;51109;47.414;18.954;2023-12-20T07:40:29;125.47;;;39.55;;
64684;SDS011;51109;47.414;18.954;2023-12-20T07:42:55;148.77;;;41.67;;
64684;SDS011;51109;47.414;18.954;2023-12-20T07:45:21;113.85;;;40.58;;
64684;SDS011;51109;47.414;18.954;2023-12-20T07:47:47;150.27;;;43.22;;
64684;SDS011;51109;47.414;18.954;2023-12-20T07:50:14;122.22;;;40.13;;
64684;SDS011;51109;47.414;18.954;2023-12-20T07:52:40;132.15;;;42.58;;
64684;SDS011;51109;47.414;18.954;2023-12-20T07:55:06;125.05;;;40.60;;
64684;SDS011;51109;47.414;18.954;2023-12-20T07:57:32;123.75;;;42.22;;
64684;SDS011;51109;47.414;18.954;2023-12-20T07:59:58;140.15;;;42.78;;
64684;SDS011;51109;47.414;18.954;2023-12-20T08:02:23;120.10;;;40.92;;
64684;SDS011;51109;47.414;18.954;2023-12-20T08:04:49;126.32;;;44.17;;
64684;SDS011;51109;47.414;18.954;2023-12-20T08:07:15;115.70;;;40.78;;
64684;SDS011;51109;47.414;18.954;2023-12-20T08:09:41;127.38;;;46.47;;
64684;SDS011;51109;47.414;18.954;2023-12-20T08:12:08;128.38;;;44.78;;
64684;SDS011;51109;47.414;18.954;2023-12-20T08:14:34;132.50;;;42.35;;
64684;SDS011;51109;47.414;18.954;2023-12-20T08:17:00;112.55;;;45.25;;
64684;SDS011;51109;47.414;18.954;2023-12-20T08:19:26;119.85;;;43.03;;
64684;SDS011;51109;47.414;18.954;2023-12-20T08:21:51;128.93;;;43.92;;
64684;SDS011;51109;47.414;18.954;2023-12-20T08:24:17;112.53;;;40.20;;
64684;SDS011;51109;47.414;18.954;2023-12-20T08:26:43;133.50;;;48.00;;
64684;SDS011;51109;47.414;18.954;2023-12-20T08:29:09;131.35;;;47.20;;
64684;SDS011;51109;47.414;18.954;2023-12-20T08:31:35;130.07;;;48.67;;
64684;SDS011;51109;47.414;18.954;2023-12-20T08:34:00;131.82;;;47.22;;
64684;SDS011;51109;47.414;18.954;2023-12-20T08:36:26;135.65;;;49.33;;
64684;SDS011;51109;47.414;18.954;2023-12-20T08:38:52;128.48;;;47.75;;
64684;SDS011;51109;47.414;18.954;2023-12-20T08:41:18;147.18;;;53.67;;
64684;SDS011;51109;47.414;18.954;2023-12-20T08:43:45;140.98;;;50.97;;
64684;SDS011;51109;47.414;18.954;2023-12-20T08:46:11;134.75;;;46.70;;
64684;SDS011;51109;47.414;18.954;2023-12-20T08:48:37;142.25;;;47.22;;
64684;SDS011;51109;47.414;18.954;2023-12-20T08:51:03;156.35;;;48.08;;
64684;SDS011;51109;47.414;18.954;2023-12-20T08:53:29;151.43;;;47.70;;
64684;SDS011;51109;47.414;18.954;2023-12-20T08:55:55;152.93;;;47.28;;
64684;SDS011;51109;47.414;18.954;2023-12-20T08:58:23;152.48;;;45.15;;
64684;SDS011;51109;47.414;18.954;2023-12-20T09:00:49;126.18;;;45.10;;
64684;SDS011;51109;47.414;18.954;2023-12-20T09:03:14;149.55;;;45.30;;
64684;SDS011;51109;47.414;18.954;2023-12-20T09:05:40;143.93;;;44.80;;
64684;SDS011;51109;47.414;18.954;2023-12-20T09:08:06;140.68;;;42.67;;
64684;SDS011;51109;47.414;18.954;2023-12-20T09:10:33;145.88;;;43.40;;
64684;SDS011;51109;47.414;18.954;2023-12-20T09:12:58;139.52;;;48.25;;
64684;SDS011;51109;47.414;18.954;2023-12-20T09:15:24;170.07;;;56.15;;
64684;SDS011;51109;47.414;18.954;2023-12-20T09:17:51;120.63;;;41.28;;
64684;SDS011;51109;47.414;18.954;2023-12-20T09:20:18;122.10;;;43.13;;
64684;SDS011;51109;47.414;18.954;2023-12-20T09:22:44;131.40;;;46.90;;
64684;SDS011;51109;47.414;18.954;2023-12-20T09:25:10;136.27;;;42.60;;
64684;SDS011;51109;47.414;18.954;2023-12-20T09:27:37;165.88;;;48.42;;
64684;SDS011;51109;47.414;18.954;2023-12-20T09:30:04;150.05;;;47.20;;
64684;SDS011;51109;47.414;18.954;2023-12-20T09:32:31;192.75;;;51.55;;
64684;SDS011;51109;47.414;18.954;2023-12-20T09:34:57;160.10;;;45.33;;
64684;SDS011;51109;47.414;18.954;2023-12-20T09:37:27;157.38;;;44.88;;
64684;SDS011;51109;47.414;18.954;2023-12-20T09:39:53;228.73;;;48.35;;
64684;SDS011;51109;47.414;18.954;2023-12-20T09:42:56;194.68;;;48.72;;
64684;SDS011;51109;47.414;18.954;2023-12-20T09:45:21;153.95;;;47.88;;
64684;SDS011;51109;47.414;18.954;2023-12-20T09:47:48;140.90;;;48.47;;
64684;SDS011;51109;47.414;18.954;2023-12-20T09:50:22;124.38;;;46.75;;
64684;SDS011;51109;47.414;18.954;2023-12-20T09:52:51;143.50;;;50.22;;
64684;SDS011;51109;47.414;18.954;2023-12-20T09:55:18;134.80;;;49.60;;
64684;SDS011;51109;47.414;18.954;2023-12-20T09:57:48;128.50;;;49.83;;
64684;SDS011;51109;47.414;18.954;2023-12-20T10:00:14;140.98;;;48.63;;
64684;SDS011;51109;47.414;18.954;2023-12-20T10:02:45;137.50;;;48.55;;
64684;SDS011;51109;47.414;18.954;2023-12-20T10:05:29;147.75;;;52.90;;
64684;SDS011;51109;47.414;18.954;2023-12-20T10:07:56;131.02;;;50.20;;
64684;SDS011;51109;47.414;18.954;2023-12-20T10:10:22;141.15;;;52.88;;
64684;SDS011;51109;47.414;18.954;2023-12-20T10:13:01;156.82;;;53.85;;
64684;SDS011;51109;47.414;18.954;2023-12-20T10:15:34;158.20;;;53.00;;
64684;SDS011;51109;47.414;18.954;2023-12-20T10:18:03;188.88;;;53.33;;
64684;SDS011;51109;47.414;18.954;2023-12-20T10:20:30;132.52;;;53.72;;
64684;SDS011;51109;47.414;18.954;2023-12-20T10:22:59;131.70;;;52.08;;
64684;SDS011;51109;47.414;18.954;2023-12-20T10:25:26;133.30;;;53.60;;
64684;SDS011;51109;47.414;18.954;2023-12-20T10:28:09;132.15;;;52.53;;
64684;SDS011;51109;47.414;18.954;2023-12-20T10:30:35;122.32;;;49.97;;
64684;SDS011;51109;47.414;18.954;2023-12-20T10:33:01;109.28;;;48.08;;
64684;SDS011;51109;47.414;18.954;2023-12-20T10:35:27;130.23;;;49.45;;
64684;SDS011;51109;47.414;18.954;2023-12-20T10:37:54;111.18;;;47.35;;
64684;SDS011;51109;47.414;18.954;2023-12-20T10:40:21;115.70;;;47.92;;
64684;SDS011;51109;47.414;18.954;2023-12-20T10:42:48;124.80;;;49.83;;
64684;SDS011;51109;47.414;18.954;2023-12-20T10:45:15;105.43;;;44.63;;
64684;SDS011;51109;47.414;18.954;2023-12-20T10:47:44;103.22;;;45.42;;
64684;SDS011;51109;47.414;18.954;2023-12-20T10:50:12;106.22;;;46.42;;
64684;SDS011;51109;47.414;18.954;2023-12-20T10:52:38;68.70;;;32.25;;
64684;SDS011;51109;47.414;18.954;2023-12-20T10:55:06;42.70;;;21.73;;
64684;SDS011;51109;47.414;18.954;2023-12-20T10:57:32;50.28;;;21.75;;
64684;SDS011;51109;47.414;18.954;2023-12-20T11:00:02;38.53;;;19.73;;
64684;SDS011;51109;47.414;18.954;2023-12-20T11:02:32;34.45;;;20.08;;
64684;SDS011;51109;47.414;18.954;2023-12-20T11:07:58;33.13;;;18.58;;
64684;SDS011;51109;47.414;18.954;2023-12-20T11:14:22;28.27;;;17.02;;
64684;SDS011;51109;47.414;18.954;2023-12-20T11:16:36;33.20;;;17.85;;
64684;SDS011;51109;47.414;18.954;2023-12-20T11:19:05;33.47;;;18.27;;
64684;SDS011;51109;47.414;18.954;2023-12-20T11:21:31;32.22;;;18.00;;
64684;SDS011;51109;47.414;18.954;2023-12-20T11:23:57;31.00;;;17.95;;
64684;SDS011;51109;47.414;18.954;2023-12-20T11:26:27;32.97;;;19.25;;
64684;SDS011;51109;47.414;18.954;2023-12-20T11:31:57;35.47;;;20.60;;
64684;SDS011;51109;47.414;18.954;2023-12-20T11:34:26;34.13;;;19.63;;
64684;SDS011;51109;47.414;18.954;2023-12-20T11:36:57;32.25;;;19.27;;
64684;SDS011;51109;47.414;18.954;2023-12-20T11:39:25;31.88;;;18.25;;
64684;SDS011;51109;47.414;18.954;2023-12-20T11:41:53;30.50;;;18.17;;
64684;SDS011;51109;47.414;18.954;2023-12-20T11:44:21;29.25;;;17.30;;
64684;SDS011;51109;47.414;18.954;2023-12-20T11:46:47;27.38;;;15.80;;
64684;SDS011;51109;47.414;18.954;2023-12-20T11:49:13;29.83;;;16.52;;
64684;SDS011;51109;47.414;18.954;2023-12-20T11:51:42;32.03;;;17.52;;
64684;SDS011;51109;47.414;18.954;2023-12-20T11:54:08;29.65;;;17.50;;
64684;SDS011;51109;47.414;18.954;2023-12-20T11:56:36;28.20;;;16.20;;
64684;SDS011;51109;47.414;18.954;2023-12-20T11:59:02;29.85;;;16.63;;
64684;SDS011;51109;47.414;18.954;2023-12-20T12:01:28;25.75;;;15.57;;
64684;SDS011;51109;47.414;18.954;2023-12-20T12:04:06;27.40;;;15.45;;
64684;SDS011;51109;47.414;18.954;2023-12-20T12:06:32;26.20;;;15.95;;
64684;SDS011;51109;47.414;18.954;2023-12-20T12:08:59;23.70;;;15.10;;
64684;SDS011;51109;47.414;18.954;2023-12-20T12:11:25;23.75;;;14.18;;
64684;SDS011;51109;47.414;18.954;2023-12-20T12:13:51;27.77;;;14.40;;
64684;SDS011;51109;47.414;18.954;2023-12-20T12:16:17;21.45;;;11.45;;
64684;SDS011;51109;47.414;18.954;2023-12-20T12:18:44;21.15;;;12.77;;
64684;SDS011;51109;47.414;18.954;2023-12-20T12:21:10;26.50;;;14.45;;
64684;SDS011;51109;47.414;18.954;2023-12-20T12:23:43;21.63;;;13.00;;
64684;SDS011;51109;47.414;18.954;2023-12-20T12:26:09;21.08;;;12.18;;
64684;SDS011;51109;47.414;18.954;2023-12-20T12:28:35;17.05;;;11.48;;
64684;SDS011;51109;47.414;18.954;2023-12-20T12:31:01;16.88;;;10.65;;
64684;SDS011;51109;47.414;18.954;2023-12-20T12:33:29;21.02;;;11.55;;
64684;SDS011;51109;47.414;18.954;2023-12-20T12:35:55;18.67;;;11.13;;
64684;SDS011;51109;47.414;18.954;2023-12-20T12:38:21;16.88;;;10.10;;
64684;SDS011;51109;47.414;18.954;2023-12-20T12:40:47;13.48;;;8.63;;
64684;SDS011;51109;47.414;18.954;2023-12-20T12:43:15;13.23;;;8.15;;
64684;SDS011;51109;47.414;18.954;2023-12-20T12:45:40;14.55;;;8.57;;
64684;SDS011;51109;47.414;18.954;2023-12-20T12:48:06;14.50;;;8.23;;
64684;SDS011;51109;47.414;18.954;2023-12-20T12:50:32;12.77;;;7.88;;
64684;SDS011;51109;47.414;18.954;2023-12-20T12:52:58;13.57;;;8.65;;
64684;SDS011;51109;47.414;18.954;2023-12-20T12:55:24;16.63;;;8.82;;
64684;SDS011;51109;47.414;18.954;2023-12-20T12:57:50;14.25;;;8.77;;
64684;SDS011;51109;47.414;18.954;2023-12-20T13:00:16;17.60;;;10.40;;
64684;SDS011;51109;47.414;18.954;2023-12-20T13:02:42;12.65;;;8.90;;
64684;SDS011;51109;47.414;18.954;2023-12-20T13:05:08;18.73;;;11.13;;
64684;SDS011;51109;47.414;18.954;2023-12-20T13:07:34;17.73;;;11.32;;
64684;SDS011;51109;47.414;18.954;2023-12-20T13:10:00;17.00;;;9.77;;
64684;SDS011;51109;47.414;18.954;2023-12-20T13:12:26;16.05;;;9.80;;
64684;SDS011;51109;47.414;18.954;2023-12-20T13:14:52;19.33;;;10.18;;
64684;SDS011;51109;47.414;18.954;2023-12-20T13:17:19;15.23;;;10.57;;
64684;SDS011;51109;47.414;18.954;2023-12-20T13:19:45;19.88;;;10.35;;
64684;SDS011;51109;47.414;18.954;2023-12-20T13:22:11;16.75;;;9.13;;
64684;SDS011;51109;47.414;18.954;2023-12-20T13:24:36;17.63;;;11.27;;
64684;SDS011;51109;47.414;18.954;2023-12-20T13:27:02;16.95;;;10.75;;
64684;SDS011;51109;47.414;18.954;2023-12-20T13:29:28;20.02;;;11.02;;
64684;SDS011;51109;47.414;18.954;2023-12-20T13:31:54;18.45;;;11.40;;
64684;SDS011;51109;47.414;18.954;2023-12-20T13:34:20;17.92;;;12.32;;
64684;SDS011;51109;47.414;18.954;2023-12-20T13:36:46;18.30;;;11.05;;
64684;SDS011;51109;47.414;18.954;2023-12-20T13:39:13;17.98;;;11.40;;
64684;SDS011;51109;47.414;18.954;2023-12-20T13:41:39;19.02;;;12.13;;
64684;SDS011;51109;47.414;18.954;2023-12-20T13:44:05;19.20;;;10.88;;
64684;SDS011;51109;47.414;18.954;2023-12-20T13:46:31;19.80;;;11.85;;
64684;SDS011;51109;47.414;18.954;2023-12-20T13:48:57;21.92;;;12.18;;
64684;SDS011;51109;47.414;18.954;2023-12-20T13:51:22;20.17;;;11.88;;
64684;SDS011;51109;47.414;18.954;2023-12-20T13:53:48;21.13;;;13.05;;
64684;SDS011;51109;47.414;18.954;2023-12-20T13:56:14;22.67;;;12.73;;
64684;SDS011;51109;47.414;18.954;2023-12-20T13:58:41;22.50;;;13.23;;
64684;SDS011;51109;47.414;18.954;2023-12-20T14:01:10;23.55;;;12.93;;
64684;SDS011;51109;47.414;18.954;2023-12-20T14:03:36;23.30;;;13.98;;
64684;SDS011;51109;47.414;18.954;2023-12-20T14:06:02;24.00;;;14.80;;
64684;SDS011;51109;47.414;18.954;2023-12-20T14:08:28;26.70;;;14.48;;